createdAt,value
2019-04-14T00:01:41.554Z,41.70
2019-04-14T00:04:18.239Z,39.23
2019-04-14T00:06:48.525Z,44.93
2019-04-14T00:09:20.673Z,37.80
2019-04-14T00:11:50.725Z,40.27
2019-04-14T00:14:20.867Z,40.90
2019-04-14T00:16:51.056Z,37.80
2019-04-14T00:19:21.730Z,41.50
2019-04-14T00:21:52.223Z,43.63
2019-04-14T00:24:22.790Z,44.50
2019-04-14T00:26:53.127Z,37.60
2019-04-14T00:29:23.890Z,34.87
2019-04-14T00:31:55.371Z,37.00
2019-04-14T00:34:44.200Z,38.90
2019-04-14T00:37:27.992Z,37.20
2019-04-14T00:40:02.071Z,40.73
2019-04-14T00:42:58.088Z,37.88
2019-04-14T00:45:43.400Z,36.87
2019-04-14T00:48:15.872Z,38.60
2019-04-14T00:50:43.844Z,36.97
2019-04-14T00:53:14.265Z,37.47
2019-04-14T00:55:44.397Z,35.93
2019-04-14T00:58:14.866Z,35.43
2019-04-14T01:00:45.212Z,35.57
2019-04-14T01:03:15.548Z,40.47
2019-04-14T01:05:45.890Z,37.67
2019-04-14T01:08:16.318Z,35.80
2019-04-14T01:10:47.551Z,32.80
2019-04-14T01:13:17.867Z,32.67
2019-04-14T01:15:57.583Z,37.50
2019-04-14T01:18:19.495Z,34.97
2019-04-14T01:20:49.476Z,38.27
2019-04-14T01:23:19.747Z,36.60
2019-04-14T01:25:49.977Z,36.93
2019-04-14T01:28:20.140Z,40.70
2019-04-14T01:30:50.159Z,42.83
2019-04-14T01:33:20.588Z,40.17
2019-04-14T01:35:50.996Z,42.07
2019-04-14T01:38:21.248Z,38.53
2019-04-14T01:40:51.283Z,36.13
2019-04-14T01:43:21.381Z,39.27
2019-04-14T01:46:04.235Z,43.00
2019-04-14T01:48:23.616Z,43.23
2019-04-14T01:51:13.526Z,44.97
2019-04-14T01:53:57.458Z,37.30
2019-04-14T01:56:51.325Z,35.78
2019-04-14T01:59:21.950Z,41.00
2019-04-14T02:01:52.962Z,39.73
2019-04-14T02:04:22.931Z,43.17
2019-04-14T02:06:53.007Z,34.25
2019-04-14T02:09:22.998Z,37.40
2019-04-14T02:11:53.138Z,36.60
2019-04-14T02:14:23.386Z,40.10
2019-04-14T02:16:57.387Z,39.10
2019-04-14T02:19:26.255Z,33.50
2019-04-14T02:21:56.566Z,38.97
2019-04-14T02:24:26.412Z,43.40
2019-04-14T02:26:56.966Z,39.03
2019-04-14T02:29:27.610Z,36.07
2019-04-14T02:32:25.545Z,40.83
2019-04-14T02:34:57.303Z,40.53
2019-04-14T02:37:43.335Z,38.20
2019-04-14T02:42:36.503Z,37.70
2019-04-14T02:44:59.995Z,39.77
2019-04-14T02:50:08.384Z,39.53
2019-04-14T02:52:35.745Z,47.63
2019-04-14T02:55:04.336Z,40.83
2019-04-14T02:57:38.253Z,37.27
2019-04-14T03:00:09.151Z,39.90
2019-04-14T03:05:09.442Z,38.50
2019-04-14T03:07:58.152Z,40.50
2019-04-14T03:10:28.059Z,38.97
2019-04-14T03:12:57.851Z,39.77
2019-04-14T03:15:28.001Z,37.10
2019-04-14T03:18:33.853Z,42.97
2019-04-14T03:21:21.328Z,42.67
2019-04-14T03:24:05.059Z,40.27
2019-04-14T03:26:45.093Z,34.43
2019-04-14T03:29:21.595Z,37.40
2019-04-14T03:34:34.263Z,36.87
2019-04-14T03:39:31.934Z,39.47
2019-04-14T03:42:00.942Z,41.07
2019-04-14T03:44:37.236Z,41.23
2019-04-14T03:47:08.696Z,35.33
2019-04-14T03:49:40.546Z,36.23
2019-04-14T03:52:02.497Z,41.70
2019-04-14T03:54:36.637Z,40.30
2019-04-14T03:56:53.355Z,46.53
2019-04-14T03:59:24.083Z,40.67
2019-04-14T04:01:54.697Z,41.67
2019-04-14T04:04:27.339Z,37.65
2019-04-14T04:06:57.576Z,36.77
2019-04-14T04:09:34.394Z,42.87
2019-04-14T04:12:05.293Z,39.77
2019-04-14T04:14:35.818Z,33.50
2019-04-14T04:17:43.220Z,40.17
2019-04-14T04:20:28.618Z,36.17
2019-04-14T04:23:10.061Z,37.67
2019-04-14T04:25:44.605Z,43.07
2019-04-14T04:28:42.858Z,39.10
2019-04-14T04:31:43.994Z,40.40
2019-04-14T04:34:33.993Z,36.23
2019-04-14T04:37:19.629Z,36.20
2019-04-14T04:39:50.190Z,36.53
2019-04-14T04:42:20.096Z,35.43
2019-04-14T04:44:50.975Z,33.37
2019-04-14T04:47:21.136Z,37.97
2019-04-14T04:49:51.303Z,39.50
2019-04-14T04:52:21.533Z,34.33
2019-04-14T04:54:51.707Z,33.20
2019-04-14T04:57:22.103Z,37.80
2019-04-14T04:59:52.131Z,40.97
2019-04-14T05:02:22.311Z,40.07
2019-04-14T05:04:52.672Z,41.83
2019-04-14T05:07:23.114Z,45.80
2019-04-14T05:10:27.088Z,38.67
2019-04-14T05:13:05.723Z,34.70
2019-04-14T05:15:48.899Z,32.77
2019-04-14T05:18:24.675Z,36.40
2019-04-14T05:20:55.362Z,39.73
2019-04-14T05:23:26.338Z,39.23
2019-04-14T05:25:56.414Z,34.73
2019-04-14T05:28:26.801Z,35.87
2019-04-14T05:30:57.133Z,37.80
2019-04-14T05:33:27.231Z,38.47
2019-04-14T05:35:57.478Z,36.20
2019-04-14T05:38:30.298Z,33.23
2019-04-14T05:41:00.338Z,38.17
2019-04-14T05:43:41.641Z,36.33
2019-04-14T05:46:03.402Z,35.40
2019-04-14T05:48:33.737Z,40.73
2019-04-14T05:51:04.176Z,36.67
2019-04-14T05:53:35.123Z,35.43
2019-04-14T05:56:05.797Z,37.77
2019-04-14T05:58:36.149Z,39.67
2019-04-14T06:01:06.937Z,36.40
2019-04-14T06:03:37.052Z,37.70
2019-04-14T06:06:07.072Z,35.57
2019-04-14T06:08:37.112Z,41.87
2019-04-14T06:11:07.135Z,30.93
2019-04-14T06:13:37.486Z,36.20
2019-04-14T06:16:07.631Z,40.83
2019-04-14T06:18:37.669Z,43.23
2019-04-14T06:21:07.645Z,35.70
2019-04-14T06:23:37.601Z,38.77
2019-04-14T06:26:07.553Z,36.37
2019-04-14T06:28:38.444Z,37.47
2019-04-14T06:31:25.758Z,35.57
2019-04-14T06:34:09.396Z,39.43
2019-04-14T06:36:48.373Z,35.80
2019-04-14T06:39:21.557Z,31.00
2019-04-14T06:41:51.556Z,31.53
2019-04-14T06:44:21.526Z,32.13
2019-04-14T06:46:51.503Z,35.07
2019-04-14T06:49:21.574Z,37.47
2019-04-14T06:51:51.893Z,34.27
2019-04-14T06:54:21.961Z,35.67
2019-04-14T06:56:51.964Z,33.67
2019-04-14T06:59:23.180Z,35.40
2019-04-14T07:01:53.457Z,32.60
2019-04-14T07:04:23.499Z,33.50
2019-04-14T07:06:53.492Z,34.23
2019-04-14T07:09:23.753Z,86.97
2019-04-14T07:11:53.749Z,32.90
2019-04-14T07:14:23.711Z,34.20
2019-04-14T07:16:54.336Z,34.70
2019-04-14T07:19:24.332Z,33.70
2019-04-14T07:21:54.359Z,30.13
2019-04-14T07:24:24.402Z,36.43
2019-04-14T07:26:54.389Z,33.43
2019-04-14T07:29:26.326Z,34.63
2019-04-14T07:32:13.797Z,33.10
2019-04-14T07:35:06.166Z,32.33
2019-04-14T07:37:43.697Z,31.53
2019-04-14T07:40:41.618Z,32.50
2019-04-14T07:43:17.255Z,33.50
2019-04-14T07:46:09.540Z,36.80
2019-04-14T07:48:53.867Z,34.30
2019-04-14T07:51:41.692Z,27.67
2019-04-14T07:54:20.800Z,29.20
2019-04-14T07:57:12.862Z,31.03
2019-04-14T08:00:02.955Z,30.93
2019-04-14T08:02:55.623Z,26.33
2019-04-14T08:05:29.508Z,32.03
2019-04-14T08:07:59.791Z,30.30
2019-04-14T08:10:30.309Z,26.97
2019-04-14T08:13:00.114Z,28.37
2019-04-14T08:15:30.386Z,33.63
2019-04-14T08:18:00.530Z,28.37
2019-04-14T08:20:30.519Z,25.23
2019-04-14T08:23:00.744Z,26.43
2019-04-14T08:25:31.008Z,25.80
2019-04-14T08:28:01.300Z,29.17
2019-04-14T08:30:31.720Z,26.37
2019-04-14T08:33:01.702Z,27.80
2019-04-14T08:35:31.664Z,28.67
2019-04-14T08:38:01.659Z,28.33
2019-04-14T08:40:31.635Z,26.07
2019-04-14T08:43:19.280Z,25.13
2019-04-14T08:45:59.839Z,25.90
2019-04-14T08:48:42.989Z,23.67
2019-04-14T08:51:26.846Z,26.60
2019-04-14T08:54:15.845Z,23.97
2019-04-14T08:57:04.853Z,24.23
2019-04-14T08:59:53.856Z,25.20
2019-04-14T09:02:41.755Z,26.53
2019-04-14T09:05:28.321Z,23.20
2019-04-14T09:08:09.914Z,26.13
2019-04-14T09:10:42.385Z,20.70
2019-04-14T09:13:12.363Z,24.07
2019-04-14T09:15:42.652Z,21.93
2019-04-14T09:18:12.548Z,23.70
2019-04-14T09:20:52.103Z,26.80
2019-04-14T09:23:14.228Z,24.63
2019-04-14T09:25:44.203Z,23.47
2019-04-14T09:28:14.158Z,26.97
2019-04-14T09:30:44.222Z,22.43
2019-04-14T09:33:15.154Z,28.90
2019-04-14T09:35:45.314Z,32.70
2019-04-14T09:38:15.220Z,40.77
2019-04-14T09:40:45.226Z,22.43
2019-04-14T09:43:15.528Z,24.27
2019-04-14T09:45:45.536Z,23.60
2019-04-14T09:48:15.688Z,24.10
2019-04-14T09:50:45.634Z,25.57
2019-04-14T09:53:15.615Z,25.90
2019-04-14T09:55:45.616Z,20.90
2019-04-14T09:58:15.585Z,21.63
2019-04-14T10:00:45.674Z,19.53
2019-04-14T10:03:15.639Z,25.47
2019-04-14T10:05:45.552Z,20.97
2019-04-14T10:08:15.609Z,20.07
2019-04-14T10:10:45.654Z,23.37
2019-04-14T10:13:15.718Z,21.33
2019-04-14T10:15:45.852Z,22.67
2019-04-14T10:18:15.764Z,17.97
2019-04-14T10:20:46.008Z,22.60
2019-04-14T10:23:16.063Z,23.50
2019-04-14T10:25:46.027Z,22.40
2019-04-14T10:28:16.164Z,23.10
2019-04-14T10:30:46.420Z,22.57
2019-04-14T10:33:16.399Z,24.53
2019-04-14T10:35:46.243Z,23.83
2019-04-14T10:38:16.130Z,23.50
2019-04-14T10:40:46.034Z,22.87
2019-04-14T10:43:16.974Z,20.90
2019-04-14T10:45:46.799Z,25.37
2019-04-14T10:48:16.761Z,23.77
2019-04-14T10:50:46.736Z,23.03
2019-04-14T10:53:16.630Z,24.10
2019-04-14T10:55:46.873Z,25.43
2019-04-14T10:58:17.113Z,22.50
2019-04-14T11:00:47.089Z,21.23
2019-04-14T11:03:17.111Z,20.37
2019-04-14T11:06:18.290Z,24.20
2019-04-14T11:08:48.377Z,23.00
2019-04-14T11:11:18.418Z,22.87
2019-04-14T11:13:48.399Z,23.95
2019-04-14T11:16:18.289Z,24.93
2019-04-14T11:18:49.351Z,26.70
2019-04-14T11:21:19.307Z,26.93
2019-04-14T11:23:49.281Z,25.50
2019-04-14T11:26:19.317Z,21.37
2019-04-14T11:28:49.464Z,23.30
2019-04-14T11:31:38.558Z,25.90
2019-04-14T11:34:09.238Z,24.13
2019-04-14T11:36:59.009Z,23.27
2019-04-14T11:39:29.402Z,22.10
2019-04-14T11:41:59.662Z,22.17
2019-04-14T11:44:29.646Z,23.27
2019-04-14T11:46:59.986Z,21.63
2019-04-14T11:49:29.856Z,23.10
2019-04-14T11:51:59.925Z,22.87
2019-04-14T11:54:29.825Z,22.03
2019-04-14T11:56:59.793Z,20.80
2019-04-14T11:59:43.683Z,19.87
2019-04-14T12:02:21.900Z,20.43
2019-04-14T12:04:59.312Z,20.97
2019-04-14T12:07:47.298Z,20.90
2019-04-14T12:10:20.254Z,21.87
2019-04-14T12:12:50.192Z,20.57
2019-04-14T12:15:20.146Z,21.80
2019-04-14T12:17:49.986Z,21.77
2019-04-14T12:20:19.942Z,23.17
2019-04-14T12:22:49.922Z,19.53
2019-04-14T12:25:19.884Z,19.07
2019-04-14T12:27:51.177Z,20.63
2019-04-14T12:30:22.408Z,20.53
2019-04-14T12:32:52.400Z,19.97
2019-04-14T12:35:22.516Z,18.73
2019-04-14T12:37:52.482Z,19.87
2019-04-14T12:40:22.467Z,20.97
2019-04-14T12:43:17.261Z,20.83
2019-04-14T12:46:10.403Z,15.27
2019-04-14T12:48:48.777Z,16.60
2019-04-14T12:51:22.386Z,16.80
2019-04-14T12:53:52.249Z,16.07
2019-04-14T12:56:25.278Z,15.43
2019-04-14T12:59:14.310Z,16.10
2019-04-14T13:02:11.105Z,20.13
2019-04-14T13:04:41.176Z,17.47
2019-04-14T13:07:11.482Z,16.10
2019-04-14T13:09:41.706Z,19.80
2019-04-14T13:12:11.651Z,17.47
2019-04-14T13:14:41.608Z,17.77
2019-04-14T13:17:11.574Z,16.53
2019-04-14T13:19:41.614Z,16.17
2019-04-14T13:22:11.589Z,16.23
2019-04-14T13:24:42.810Z,18.87
2019-04-14T13:27:12.872Z,18.67
2019-04-14T13:29:42.885Z,18.57
2019-04-14T13:32:13.014Z,21.17
2019-04-14T13:34:42.983Z,20.13
2019-04-14T13:37:13.001Z,18.57
2019-04-14T13:39:43.000Z,18.70
2019-04-14T13:42:12.972Z,19.83
2019-04-14T13:44:42.930Z,17.63
2019-04-14T13:47:12.898Z,17.63
2019-04-14T13:49:43.751Z,16.90
2019-04-14T13:52:13.973Z,15.57
2019-04-14T13:54:44.091Z,17.20
2019-04-14T13:57:14.338Z,20.73
2019-04-14T13:59:44.319Z,17.43
2019-04-14T14:02:14.294Z,19.90
2019-04-14T14:04:44.213Z,16.53
2019-04-14T14:07:14.113Z,17.53
2019-04-14T14:09:44.254Z,20.07
2019-04-14T14:12:32.584Z,19.85
2019-04-14T14:15:11.347Z,19.43
2019-04-14T14:17:49.361Z,16.83
2019-04-14T14:20:26.263Z,17.40
2019-04-14T14:23:12.823Z,18.60
2019-04-14T14:25:47.818Z,19.07
2019-04-14T14:28:17.762Z,24.00
2019-04-14T14:30:47.797Z,20.63
2019-04-14T14:33:17.690Z,17.63
2019-04-14T14:35:47.744Z,16.87
2019-04-14T14:38:17.748Z,19.60
2019-04-14T14:40:49.365Z,20.17
2019-04-14T14:43:19.432Z,19.03
2019-04-14T14:45:57.595Z,20.53
2019-04-14T14:48:41.730Z,20.37
2019-04-14T14:51:30.766Z,18.90
2019-04-14T14:54:00.988Z,22.23
2019-04-14T14:56:30.963Z,21.57
2019-04-14T14:59:00.879Z,21.13
2019-04-14T15:01:30.850Z,19.77
2019-04-14T15:04:00.909Z,18.07
2019-04-14T15:06:30.921Z,19.23
2019-04-14T15:09:02.077Z,17.50
2019-04-14T15:11:33.226Z,19.10
2019-04-14T15:14:03.235Z,18.20
2019-04-14T15:16:33.177Z,23.87
2019-04-14T15:19:03.341Z,20.47
2019-04-14T15:21:33.406Z,20.37
2019-04-14T15:24:04.426Z,18.30
2019-04-14T15:26:34.517Z,19.60
2019-04-14T15:29:04.578Z,18.63
2019-04-14T15:31:34.571Z,22.13
2019-04-14T15:34:04.539Z,19.60
2019-04-14T15:36:34.534Z,22.07
2019-04-14T15:39:06.976Z,20.10
2019-04-14T15:41:37.058Z,20.17
2019-04-14T15:44:07.454Z,18.20
2019-04-14T15:46:37.645Z,25.17
2019-04-14T15:49:08.301Z,17.33
2019-04-14T15:51:38.286Z,17.40
2019-04-14T15:54:08.355Z,20.40
2019-04-14T15:57:01.308Z,21.70
2019-04-14T15:59:46.807Z,17.80
2019-04-14T16:02:25.934Z,18.73
2019-04-14T16:05:03.401Z,18.03
2019-04-14T16:07:38.202Z,18.40
2019-04-14T16:10:30.755Z,15.73
2019-04-14T16:13:12.502Z,20.03
2019-04-14T16:17:00.153Z,15.30
2019-04-14T16:19:42.554Z,16.60
2019-04-14T16:22:12.530Z,17.27
2019-04-14T16:24:42.639Z,15.37
2019-04-14T16:27:36.345Z,13.03
2019-04-14T16:30:13.452Z,15.50
2019-04-14T16:33:01.387Z,16.87
2019-04-14T16:35:32.784Z,18.83
2019-04-14T16:38:02.755Z,20.80
2019-04-14T16:40:32.804Z,16.60
2019-04-14T16:43:02.761Z,18.50
2019-04-14T16:45:33.146Z,14.97
2019-04-14T16:48:03.027Z,15.93
2019-04-14T16:50:33.362Z,14.83
2019-04-14T16:53:37.593Z,15.30
2019-04-14T16:56:15.111Z,18.30
2019-04-14T16:58:48.430Z,16.27
2019-04-14T17:01:23.157Z,17.20
2019-04-14T17:03:53.149Z,13.33
2019-04-14T17:06:25.511Z,14.63
2019-04-14T17:08:55.494Z,18.50
2019-04-14T17:11:25.448Z,15.10
2019-04-14T17:14:01.177Z,17.93
2019-04-14T17:16:53.179Z,14.10
2019-04-14T17:19:45.042Z,13.83
2019-04-14T17:22:22.881Z,13.63
2019-04-14T17:25:10.445Z,16.57
2019-04-14T17:27:45.111Z,13.80
2019-04-14T17:30:30.294Z,13.07
2019-04-14T17:33:31.649Z,13.30
2019-04-14T17:36:10.757Z,14.23
2019-04-14T17:39:14.948Z,12.97
2019-04-14T17:41:53.698Z,14.70
2019-04-14T17:44:41.179Z,15.63
2019-04-14T17:47:30.544Z,13.30
2019-04-14T17:50:25.778Z,15.97
2019-04-14T17:53:08.311Z,15.07
2019-04-14T17:56:06.364Z,14.83
2019-04-14T17:58:55.228Z,14.90
2019-04-14T18:01:38.791Z,17.40
2019-04-14T18:04:29.597Z,14.30
2019-04-14T18:07:14.599Z,16.27
2019-04-14T18:10:03.197Z,17.60
2019-04-14T18:12:44.912Z,18.90
2019-04-14T18:15:46.801Z,19.07
2019-04-14T18:18:33.257Z,16.20
2019-04-14T18:21:06.370Z,17.97
2019-04-14T18:23:36.631Z,19.12
2019-04-14T18:26:08.450Z,19.73
2019-04-14T18:29:10.627Z,18.60
2019-04-14T18:31:46.535Z,22.97
2019-04-14T18:34:30.459Z,19.57
2019-04-14T18:37:11.009Z,21.47
2019-04-14T18:40:05.770Z,21.23
2019-04-14T18:42:46.985Z,20.87
2019-04-14T18:45:28.084Z,20.45
2019-04-14T18:48:17.092Z,23.37
2019-04-14T18:51:08.924Z,19.60
2019-04-14T18:53:52.870Z,23.67
2019-04-14T18:56:40.611Z,24.80
2019-04-14T18:59:28.394Z,23.50
2019-04-14T19:01:58.511Z,27.57
2019-04-14T19:04:28.458Z,27.87
2019-04-14T19:06:58.423Z,23.07
2019-04-14T19:09:28.613Z,24.98
2019-04-14T19:12:09.304Z,26.53
2019-04-14T19:14:40.097Z,24.90
2019-04-14T19:17:17.138Z,23.73
2019-04-14T19:20:00.833Z,24.13
2019-04-14T19:22:22.388Z,27.93
2019-04-14T19:24:52.375Z,26.63
2019-04-14T19:27:22.338Z,26.90
2019-04-14T19:29:52.239Z,28.37
2019-04-14T19:32:22.179Z,31.73
2019-04-14T19:34:52.702Z,29.50
2019-04-14T19:37:22.735Z,26.83
2019-04-14T19:39:52.975Z,28.07
2019-04-14T19:42:22.850Z,26.63
2019-04-14T19:44:53.817Z,28.20
2019-04-14T19:47:23.690Z,28.03
2019-04-14T19:49:53.665Z,30.73
2019-04-14T19:52:23.577Z,29.97
2019-04-14T19:54:53.949Z,29.10
2019-04-14T19:57:23.993Z,26.23
2019-04-14T19:59:53.968Z,30.27
2019-04-14T20:02:23.947Z,32.77
2019-04-14T20:04:54.237Z,32.53
2019-04-14T20:07:24.155Z,29.77
2019-04-14T20:09:54.040Z,34.47
2019-04-14T20:12:24.123Z,29.80
2019-04-14T20:14:54.165Z,33.70
2019-04-14T20:17:43.459Z,33.17
2019-04-14T20:20:50.468Z,34.70
2019-04-14T20:23:34.741Z,37.07
2019-04-14T20:26:28.056Z,36.13
2019-04-14T20:29:10.643Z,34.37
2019-04-14T20:31:50.611Z,33.27
2019-04-14T20:34:20.739Z,34.97
2019-04-14T20:36:50.788Z,34.40
2019-04-14T20:39:28.838Z,38.60
2019-04-14T20:41:58.736Z,34.03
2019-04-14T20:44:29.060Z,37.20
2019-04-14T20:46:59.048Z,35.67
2019-04-14T20:49:29.051Z,36.53
2019-04-14T20:51:59.315Z,39.10
2019-04-14T20:54:29.239Z,38.33
2019-04-14T20:56:59.159Z,33.23
2019-04-14T20:59:29.462Z,41.70
2019-04-14T21:02:17.385Z,34.97
2019-04-14T21:05:09.189Z,35.83
2019-04-14T21:07:48.056Z,40.17
2019-04-14T21:10:24.952Z,34.27
2019-04-14T21:13:23.264Z,38.97
2019-04-14T21:16:15.239Z,45.10
2019-04-14T21:18:50.936Z,48.80
2019-04-14T21:21:27.909Z,46.03
2019-04-14T21:24:19.729Z,39.70
2019-04-14T21:27:07.652Z,41.17
2019-04-14T21:30:02.534Z,41.17
2019-04-14T21:32:47.840Z,43.37
2019-04-14T21:35:30.901Z,41.17
2019-04-14T21:38:29.107Z,39.50
2019-04-14T21:41:03.379Z,44.07
2019-04-14T21:43:33.966Z,42.90
2019-04-14T21:46:04.023Z,43.47
2019-04-14T21:48:33.984Z,43.87
2019-04-14T21:51:03.999Z,42.87
2019-04-14T21:53:33.951Z,41.07
2019-04-14T21:56:13.415Z,44.60
2019-04-14T21:58:47.990Z,46.10
2019-04-14T22:01:55.576Z,44.07
2019-04-14T22:04:53.837Z,48.33
2019-04-14T22:07:31.281Z,43.87
2019-04-14T22:10:16.611Z,47.23
2019-04-14T22:12:47.748Z,52.77
2019-04-14T22:15:17.824Z,50.93
2019-04-14T22:17:47.629Z,49.23
2019-04-14T22:20:17.661Z,52.53
2019-04-14T22:22:47.646Z,48.40
2019-04-14T22:25:17.563Z,52.90
2019-04-14T22:27:47.623Z,52.80
2019-04-14T22:30:18.587Z,50.53
2019-04-14T22:32:48.537Z,52.93
2019-04-14T22:35:18.461Z,50.97
2019-04-14T22:37:48.360Z,51.60
2019-04-14T22:40:19.490Z,50.37
2019-04-14T22:42:49.494Z,47.30
2019-04-14T22:45:19.462Z,40.23
2019-04-14T22:47:49.434Z,41.23
2019-04-14T22:50:19.510Z,46.63
2019-04-14T22:52:49.475Z,41.90
2019-04-14T22:55:19.439Z,44.77
2019-04-14T22:57:49.646Z,41.50
2019-04-14T23:00:36.091Z,43.73
2019-04-14T23:03:16.378Z,39.07
2019-04-14T23:06:01.118Z,40.90
2019-04-14T23:08:41.850Z,42.40
2019-04-14T23:11:29.759Z,39.70
2019-04-14T23:14:24.171Z,39.23
2019-04-14T23:17:11.939Z,38.77
2019-04-14T23:19:52.883Z,39.53
2019-04-14T23:22:27.621Z,38.17
2019-04-14T23:24:57.816Z,40.03
2019-04-14T23:27:27.782Z,41.17
2019-04-14T23:29:57.794Z,41.97
2019-04-14T23:32:27.834Z,41.23
2019-04-14T23:34:57.726Z,46.17
2019-04-14T23:37:27.618Z,37.60
2019-04-14T23:39:57.931Z,39.87
2019-04-14T23:42:27.908Z,41.87
2019-04-14T23:44:57.989Z,41.63
2019-04-14T23:47:27.884Z,45.53
2019-04-14T23:49:57.869Z,40.10
2019-04-14T23:52:27.841Z,40.30
2019-04-14T23:54:57.878Z,40.53
2019-04-14T23:57:27.921Z,44.83
2019-04-14T23:59:57.881Z,38.87
